Athena, Oregon
Current Conditions -  °F | °C
As of 2:53 PM on Thursday 27 Nov 2014 (Local Time) from KPDT Reporting Station
Overcast Overcast  
Wind Chill: 16°   Ceiling: 5500
Heat Index: 16°   Visibility: 10mi
Dew Point:   Wind: 13mph
Humidity: 57%   Direction: 210°SSW
Pressure: 29.87"   Gusts: NA
Location:  45.81°N, 118.49°W
Report Text: KPDT 272253Z 21011KT 10SM OVC055 16/07 A2987 RMK AO2 SLP107 T01560072
Loading
Personal Weather Stations






























Interactive Weather Map New forecast layout! Learn more

10-Day Weather Forecast

Advertisements
Track Severe Weather on mobile